Time;durP1;ratioP1;P1;durP2;ratioP2;P2;SDS_P1;SDS_P2;PMS_P1;PMS_P2;Temp;Humidity;BMP_temperature;BMP_pressure;BME280_temperature;BME280_humidity;BME280_pressure;Samples;Min_cycle;Max_cycle;Signal;HPM_P1;HPM_P2
2021/08/26 00:08:07;;;;;;;;;52.25;44.25;;;;;22.33;62.85;100820.97;6306177;22;8805;-73
2021/08/26 00:11:05;;;;;;;;;59.00;48.00;;;;;22.30;62.96;100813.31;6305847;22;8794;-73
2021/08/26 00:14:01;;;;;;;;;68.00;51.67;;;;;22.27;62.57;100819.78;6306558;22;9712;-73
2021/08/26 00:16:57;;;;;;;;;67.50;54.25;;;;;22.28;63.34;100821.38;6285605;22;9282;-73
2021/08/26 00:19:53;;;;;;;;;74.00;60.50;;;;;22.52;62.27;100818.88;6306095;22;9823;-73
2021/08/26 00:22:49;;;;;;;;;83.00;70.75;;;;;22.35;62.60;100815.72;6280431;22;9869;-73
2021/08/26 00:25:44;;;;;;;;;82.50;68.50;;;;;22.34;62.07;100814.13;6293801;22;10429;-73
2021/08/26 00:28:40;;;;;;;;;88.75;73.25;;;;;22.21;62.45;100821.41;6284858;22;10555;-73
2021/08/26 00:31:36;;;;;;;;;76.75;66.25;;;;;21.87;63.38;100821.06;6278246;22;10536;-73
2021/08/26 00:34:04;;;;;;;;;66.75;53.00;;;;;21.72;65.12;100817.47;6315684;22;10227;-73
2021/08/26 00:37:00;;;;;;;;;71.25;56.25;;;;;21.62;64.81;100807.84;6283515;22;9742;-73
2021/08/26 00:39:55;;;;;;;;;69.25;57.75;;;;;21.79;65.50;100813.84;6305782;22;10086;-73
2021/08/26 00:42:24;;;;;;;;;73.25;60.25;;;;;21.77;64.56;100821.88;6307579;22;10060;-73
2021/08/26 00:45:20;;;;;;;;;76.25;63.75;;;;;21.84;64.40;100819.03;6305671;22;10065;-73
2021/08/26 00:48:20;;;;;;;;;78.75;66.75;;;;;21.86;64.57;100820.28;6305680;22;10340;-73
2021/08/26 00:51:16;;;;;;;;;74.25;59.75;;;;;21.79;64.52;100825.09;6286280;22;10689;-73
2021/08/26 00:54:12;;;;;;;;;78.75;71.25;;;;;21.59;64.83;100819.88;6305430;22;10381;-73
2021/08/26 00:57:08;;;;;;;;;78.00;65.50;;;;;21.46;65.92;100820.69;6306662;22;10473;-73
2021/08/26 00:59:54;;;;;;;;;74.50;61.75;;;;;21.37;66.36;100819.09;6306903;22;10329;-73
2021/08/26 01:03:08;;;;;;;;;72.00;55.00;;;;;21.63;65.87;100822.72;6305328;22;10180;-73
2021/08/26 01:06:13;;;;;;;;;73.00;59.75;;;;;21.70;65.45;100819.91;6305394;22;10422;-73
2021/08/26 01:09:14;;;;;;;;;70.25;58.75;;;;;21.77;65.02;100822.66;6305190;22;10166;-73
2021/08/26 01:12:14;;;;;;;;;70.75;58.50;;;;;21.74;65.94;100817.88;6305401;22;10177;-73
2021/08/26 01:14:43;;;;;;;;;65.50;52.50;;;;;21.99;64.74;100820.63;6315975;22;10009;-74
2021/08/26 01:17:43;;;;;;;;;67.00;52.25;;;;;21.88;64.22;100819.84;6306717;22;10375;-73
2021/08/26 01:20:38;;;;;;;;;62.50;49.75;;;;;21.70;65.57;100810.63;6306301;22;9676;-73
2021/08/26 01:23:42;;;;;;;;;57.25;48.00;;;;;21.59;65.53;100817.06;6304230;22;9614;-74
2021/08/26 01:26:42;;;;;;;;;60.33;48.33;;;;;21.48;65.18;100813.47;6284589;22;9460;-73
2021/08/26 01:29:40;;;;;;;;;58.25;46.50;;;;;21.28;65.60;100812.25;6285726;22;9602;-73
2021/08/26 01:32:36;;;;;;;;;58.00;48.00;;;;;21.13;66.32;100813.41;6305252;22;9507;-73
2021/08/26 01:35:32;;;;;;;;;58.67;48.33;;;;;21.03;67.12;100809.41;6304989;22;9327;-73
2021/08/26 01:38:29;;;;;;;;;59.00;47.33;;;;;20.83;67.69;100800.50;6305088;22;9483;-73
2021/08/26 01:41:51;;;;;;;;;56.00;46.00;;;;;20.80;67.88;100807.75;6305048;22;9598;-74
2021/08/26 01:44:46;;;;;;;;;52.67;43.00;;;;;20.69;67.61;100811.72;6279951;22;9331;-74
2021/08/26 01:47:42;;;;;;;;;56.33;45.00;;;;;20.67;67.87;100809.31;6292857;22;9284;-74
2021/08/26 01:50:37;;;;;;;;;55.33;46.33;;;;;20.41;68.77;100812.41;6305074;22;9284;-73
2021/08/26 01:53:33;;;;;;;;;54.67;45.67;;;;;20.11;69.86;100812.66;6304287;22;9241;-74
2021/08/26 01:56:28;;;;;;;;;52.00;44.00;;;;;19.99;71.15;100816.59;6304252;22;9159;-74
2021/08/26 01:59:13;;;;;;;;;52.00;43.00;;;;;20.10;70.63;100816.66;6305134;22;9549;-74
2021/08/26 02:02:09;;;;;;;;;49.33;39.67;;;;;20.10;70.60;100817.47;6286037;22;9524;-74
2021/08/26 02:05:05;;;;;;;;;48.33;41.00;;;;;20.18;70.09;100810.69;6298285;22;9366;-74
2021/08/26 02:08:00;;;;;;;;;44.00;36.33;;;;;20.23;69.92;100812.31;6307193;22;9321;-73
2021/08/26 02:10:56;;;;;;;;;47.33;38.33;;;;;20.10;70.23;100806.25;6307107;22;9334;-73
2021/08/26 02:13:51;;;;;;;;;43.33;37.67;;;;;20.11;70.36;100799.44;6307222;22;9183;-74
2021/08/26 02:16:47;;;;;;;;;39.50;34.50;;;;;19.98;70.91;100806.56;6307324;22;8865;-73
2021/08/26 02:19:43;;;;;;;;;40.33;35.33;;;;;19.91;71.03;100806.53;6306668;22;8784;-74
2021/08/26 02:22:24;;;;;;;;;37.25;33.75;;;;;19.90;70.97;100800.09;6307111;22;9661;-74
2021/08/26 02:24:52;;;;;;;;;39.25;33.50;;;;;19.85;71.28;100802.47;6317674;22;8769;-74
2021/08/26 02:27:47;;;;;;;;;39.00;35.50;;;;;19.80;71.40;100792.44;6286590;22;8785;-74
2021/08/26 02:30:43;;;;;;;;;37.75;34.25;;;;;19.66;72.13;100790.34;6307225;22;8777;-74
2021/08/26 02:33:39;;;;;;;;;39.33;36.00;;;;;19.79;71.78;100798.44;6306925;22;8873;-74
2021/08/26 02:36:35;;;;;;;;;41.00;36.00;;;;;19.79;71.40;100793.63;6307158;22;8983;-74
2021/08/26 02:39:31;;;;;;;;;40.67;36.67;;;;;19.80;71.65;100806.47;6307163;22;9049;-73
2021/08/26 02:42:26;;;;;;;;;34.33;32.33;;;;;19.75;71.94;100797.59;6306920;22;9021;-73
2021/08/26 02:44:54;;;;;;;;;38.00;33.75;;;;;19.76;72.03;100807.63;6317723;22;9059;-73
2021/08/26 02:47:49;;;;;;;;;36.67;34.00;;;;;19.68;71.85;100803.97;6276060;22;8787;-73
2021/08/26 02:50:45;;;;;;;;;42.67;36.33;;;;;19.67;72.20;100807.97;6295582;22;8886;-73
2021/08/26 02:53:41;;;;;;;;;36.00;33.67;;;;;19.64;72.23;100803.94;6286355;22;8968;-72
2021/08/26 02:56:36;;;;;;;;;41.33;36.00;;;;;19.48;73.14;100799.78;6306832;22;8886;-73
2021/08/26 02:59:19;;;;;;;;;40.33;36.00;;;;;19.45;73.61;100801.34;6283211;22;8944;-72
2021/08/26 03:02:14;;;;;;;;;39.33;36.00;;;;;19.49;73.49;100796.59;6305806;22;9213;-73
2021/08/26 03:05:10;;;;;;;;;42.33;37.00;;;;;19.47;73.27;100796.16;6306503;22;9015;-73
2021/08/26 03:08:05;;;;;;;;;46.00;39.33;;;;;19.34;74.04;100795.69;6306534;22;8933;-74
2021/08/26 03:11:01;;;;;;;;;40.67;36.00;;;;;19.28;74.33;100796.41;6277495;22;9278;-73
2021/08/26 03:13:57;;;;;;;;;43.00;38.00;;;;;19.27;74.25;100798.41;6306605;22;9041;-72
2021/08/26 03:16:52;;;;;;;;;50.00;41.67;;;;;18.96;75.48;100796.94;6306169;22;9239;-73
2021/08/26 03:19:51;;;;;;;;;46.33;37.33;;;;;19.06;75.67;100798.22;6306554;22;9420;-73
2021/08/26 03:22:48;;;;;;;;;45.67;39.00;;;;;19.11;75.68;100804.28;6306206;22;10137;-72
2021/08/26 03:25:44;;;;;;;;;54.00;44.25;;;;;19.00;76.53;100794.94;6294551;22;9246;-72
2021/08/26 03:28:40;;;;;;;;;47.67;40.67;;;;;19.02;76.21;100794.59;6306358;22;9548;-73
2021/08/26 03:31:35;;;;;;;;;52.50;42.75;;;;;19.08;76.06;100799.44;6306759;22;9454;-72
2021/08/26 03:34:03;;;;;;;;;56.75;45.25;;;;;19.02;76.48;100794.59;6316542;22;9452;-73
2021/08/26 03:36:58;;;;;;;;;53.25;42.75;;;;;19.15;76.30;100799.50;6306599;22;9744;-72
2021/08/26 03:39:54;;;;;;;;;55.25;43.50;;;;;19.10;75.96;100810.28;6306513;22;9671;-72
2021/08/26 03:42:49;;;;;;;;;51.50;42.25;;;;;19.05;75.93;100810.63;6285935;22;9714;-72
2021/08/26 03:45:17;;;;;;;;;53.00;43.25;;;;;19.12;75.84;100799.47;6316767;22;9700;-72
2021/08/26 03:48:13;;;;;;;;;49.25;39.50;;;;;19.21;75.69;100805.56;6306190;22;9633;-73
2021/08/26 03:51:09;;;;;;;;;46.00;39.25;;;;;19.27;75.96;100792.81;6306266;22;9800;-73
2021/08/26 03:54:04;;;;;;;;;45.00;38.75;;;;;19.45;75.78;100799.34;6306646;22;9617;-72
2021/08/26 03:57:00;;;;;;;;;49.67;41.33;;;;;19.51;74.93;100796.19;6306074;22;9471;-72
2021/08/26 03:59:55;;;;;;;;;48.33;41.67;;;;;19.51;75.10;100793.41;6306180;22;9241;-74
2021/08/26 04:02:51;;;;;;;;;49.33;41.67;;;;;19.57;75.58;100792.69;6306111;22;9327;-72
2021/08/26 04:05:46;;;;;;;;;42.67;37.67;;;;;19.76;74.81;100796.41;6295365;22;9271;-72
2021/08/26 04:08:42;;;;;;;;;48.67;40.67;;;;;19.60;75.28;100789.09;6293432;22;9336;-71
2021/08/26 04:11:37;;;;;;;;;52.33;42.67;;;;;19.66;76.64;100789.53;6285069;22;9365;-72
2021/08/26 04:14:33;;;;;;;;;50.67;41.67;;;;;19.62;75.43;100797.09;6285062;22;9331;-73
2021/08/26 04:17:28;;;;;;;;;48.33;39.33;;;;;19.66;76.28;100789.53;6305717;22;9412;-72
2021/08/26 04:20:24;;;;;;;;;50.33;40.67;;;;;19.86;77.47;100795.66;6305976;22;10141;-73
2021/08/26 04:22:52;;;;;;;;;55.67;44.67;;;;;20.12;76.56;100789.00;6316180;22;9325;-74
2021/08/26 04:25:20;;;;;;;;;50.75;43.25;;;;;19.82;76.13;100792.03;6316483;22;9256;-73
2021/08/26 04:27:47;;;;;;;;;65.50;49.75;;;;;19.81;74.81;100793.22;6315888;22;9473;-73
2021/08/26 04:30:44;;;;;;;;;46.00;38.67;;;;;20.44;76.49;100786.34;6305998;22;10081;-73
2021/08/26 04:33:12;;;;;;;;;70.00;54.50;;;;;20.66;72.57;100796.47;6316405;22;9096;-73
2021/08/26 04:36:07;;;;;;;;;65.00;49.25;;;;;20.66;71.68;100792.84;6305289;22;9898;-73
2021/08/26 04:38:36;;;;;;;;;72.00;52.75;;;;;21.06;71.76;100792.53;6316017;22;9709;-74
2021/08/26 04:41:32;;;;;;;;;66.33;50.00;;;;;21.31;70.98;100797.38;6306128;22;9871;-73
2021/08/26 04:44:29;;;;;;;;;62.33;47.67;;;;;21.78;70.91;100800.97;6305417;22;9510;-73
2021/08/26 04:47:24;;;;;;;;;44.25;36.00;;;;;21.72;67.06;100797.78;6305175;22;9205;-73
2021/08/26 04:50:20;;;;;;;;;38.75;33.50;;;;;21.95;69.43;100793.69;6305470;22;9585;-73
2021/08/26 04:53:15;;;;;;;;;50.50;39.25;;;;;22.06;68.28;100797.28;6305116;22;8906;-75
2021/08/26 04:56:11;;;;;;;;;40.50;36.00;;;;;22.08;66.25;100794.88;6305453;22;8811;-74
2021/08/26 04:59:06;;;;;;;;;40.00;35.00;;;;;22.37;68.19;100810.47;6305051;22;8792;-74
2021/08/26 05:02:02;;;;;;;;;37.50;33.00;;;;;22.66;67.67;100801.91;6305171;22;8796;-73
2021/08/26 05:04:45;;;;;;;;;29.50;29.00;;;;;22.68;65.08;100791.81;6304880;22;8905;-74
2021/08/26 05:07:40;;;;;;;;;48.75;39.75;;;;;23.01;66.93;100798.91;6307037;22;8831;-72
2021/08/26 05:10:16;;;;;;;;;31.75;30.25;;;;;23.42;65.50;100808.66;6306348;22;8785;-73
2021/08/26 05:13:12;;;;;;;;;27.00;27.00;;;;;23.55;64.20;100804.13;6305377;22;8789;-73
2021/08/26 05:16:07;;;;;;;;;24.00;24.00;;;;;23.58;64.10;100806.91;6305051;22;8880;-73
2021/08/26 05:19:03;;;;;;;;;30.75;29.25;;;;;23.80;63.82;100806.72;6305468;22;8888;-73
2021/08/26 05:21:59;;;;;;;;;34.00;31.75;;;;;23.88;63.60;100804.63;6306607;22;8781;-74
2021/08/26 05:24:55;;;;;;;;;27.75;27.75;;;;;23.92;61.97;100791.25;6305298;22;8796;-74
2021/08/26 05:27:51;;;;;;;;;25.25;24.25;;;;;23.92;61.66;100802.56;6305113;22;8769;-74
2021/08/26 05:30:19;;;;;;;;;31.50;30.25;;;;;24.09;62.78;100802.38;6316021;22;8789;-74
2021/08/26 05:33:15;;;;;;;;;28.00;27.50;;;;;24.21;62.16;100800.22;6305382;22;8801;-74
2021/08/26 05:36:12;;;;;;;;;21.75;21.75;;;;;24.30;61.21;100804.13;6305202;22;8817;-73
2021/08/26 05:39:07;;;;;;;;;40.50;32.75;;;;;24.22;60.82;100799.78;6302818;22;8785;-73
2021/08/26 05:42:03;;;;;;;;;29.75;27.50;;;;;24.47;61.16;100798.72;6304046;22;8883;-74
2021/08/26 05:44:59;;;;;;;;;26.50;26.50;;;;;24.64;59.74;100800.50;6304942;22;8895;-72
2021/08/26 05:47:27;;;;;;;;;24.25;22.50;;;;;24.78;60.13;100796.69;6314981;22;8773;-72
2021/08/26 05:50:23;;;;;;;;;21.60;21.60;;;;;24.92;58.84;100790.81;6304871;22;9556;-73
2021/08/26 05:53:19;;;;;;;;;22.40;22.40;;;;;25.06;59.22;100782.13;6306023;22;8773;-72
2021/08/26 05:56:15;;;;;;;;;22.20;22.20;;;;;25.23;58.92;100788.75;6305084;22;8911;-72
2021/08/26 05:59:10;;;;;;;;;20.20;19.60;;;;;25.32;57.17;100788.19;6304879;22;9444;-73
2021/08/26 06:02:06;;;;;;;;;18.40;18.40;;;;;25.53;55.85;100790.66;6304998;22;8789;-73
2021/08/26 06:05:02;;;;;;;;;20.80;20.80;;;;;25.71;56.08;100796.00;6304913;22;8777;-73
2021/08/26 06:07:58;;;;;;;;;17.60;17.60;;;;;25.83;54.97;100789.72;6304311;22;8769;-73
2021/08/26 06:10:53;;;;;;;;;16.80;16.80;;;;;25.95;54.90;100785.47;6304822;22;8769;-73
2021/08/26 06:13:49;;;;;;;;;20.40;19.40;;;;;26.15;54.47;100780.63;6284468;22;8816;-73
2021/08/26 06:16:45;;;;;;;;;17.60;17.60;;;;;26.25;52.87;100788.09;6303730;22;8812;-74
2021/08/26 06:19:14;;;;;;;;;16.00;16.00;;;;;26.37;52.39;100788.66;6288656;22;8886;-73
2021/08/26 06:22:10;;;;;;;;;18.40;18.40;;;;;26.58;53.14;100791.06;6305258;22;8792;-74
2021/08/26 06:25:07;;;;;;;;;19.20;19.20;;;;;26.68;53.48;100783.56;6305166;22;8773;-75
2021/08/26 06:28:03;;;;;;;;;16.40;16.00;;;;;26.90;50.42;100784.66;6304569;22;8807;-75
2021/08/26 06:30:30;;;;;;;;;15.80;15.40;;;;;26.92;50.84;100792.75;6315918;22;8824;-75
2021/08/26 06:33:26;;;;;;;;;12.60;12.60;;;;;27.13;50.15;100792.25;6275622;22;8786;-75
2021/08/26 06:36:24;;;;;;;;;11.60;11.60;;;;;27.27;49.67;100789.06;6304730;22;8765;-74
2021/08/26 06:39:20;;;;;;;;;10.80;10.80;;;;;27.18;48.90;100786.06;6305072;22;8807;-75
2021/08/26 06:42:16;;;;;;;;;11.80;11.80;;;;;27.37;49.03;100788.03;6305007;22;8995;-75
2021/08/26 06:45:12;;;;;;;;;62.40;37.40;;;;;27.48;47.80;100786.94;6304908;22;8886;-75
2021/08/26 06:48:07;;;;;;;;;13.00;13.00;;;;;27.64;47.84;100781.25;6284047;22;8791;-74
2021/08/26 06:51:03;;;;;;;;;12.80;12.80;;;;;27.66;48.38;100781.59;6304447;22;8796;-74
2021/08/26 06:53:59;;;;;;;;;13.40;13.40;;;;;27.84;47.93;100781.16;6286621;22;9489;-74
2021/08/26 06:56:54;;;;;;;;;14.60;14.60;;;;;27.88;47.02;100787.53;6306504;22;8828;-74
2021/08/26 06:59:50;;;;;;;;;12.80;12.80;;;;;28.01;46.77;100784.75;6306916;22;8811;-74
2021/08/26 07:02:17;;;;;;;;;15.20;15.20;;;;;28.17;46.65;100787.53;6317280;22;8861;-74
2021/08/26 07:05:13;;;;;;;;;10.40;10.40;;;;;28.32;46.32;100777.38;6306859;22;9519;-75
2021/08/26 07:08:09;;;;;;;;;14.60;14.60;;;;;28.45;45.75;100783.09;6306359;22;8808;-74
2021/08/26 07:10:37;;;;;;;;;9.40;9.40;;;;;28.51;46.13;100784.91;6308123;22;8777;-74
2021/08/26 07:13:47;;;;;;;;;13.40;13.40;;;;;28.65;44.96;100777.19;6308077;22;8757;-74
2021/08/26 07:16:43;;;;;;;;;14.00;13.60;;;;;28.66;46.42;100771.03;6306231;22;8879;-74
2021/08/26 07:19:39;;;;;;;;;14.00;12.80;;;;;28.73;45.64;100775.72;6305437;22;8780;-74
2021/08/26 07:22:34;;;;;;;;;15.20;15.20;;;;;29.00;45.26;100773.25;6306742;22;9617;-74
2021/08/26 07:25:30;;;;;;;;;13.60;13.60;;;;;29.04;45.53;100776.75;6306509;22;8799;-74
2021/08/26 07:28:26;;;;;;;;;12.20;12.20;;;;;29.08;44.77;100770.97;6306132;22;8780;-74
2021/08/26 07:31:22;;;;;;;;;14.40;14.40;;;;;29.16;45.35;100757.28;6306448;22;8888;-74
2021/08/26 07:34:18;;;;;;;;;10.80;10.80;;;;;29.31;45.27;100759.19;6286292;22;9577;-74
2021/08/26 07:37:13;;;;;;;;;20.00;15.40;;;;;29.43;44.75;100760.41;6306344;22;8820;-74
2021/08/26 07:40:11;;;;;;;;;15.00;15.00;;;;;29.55;43.70;100765.31;6285898;22;8796;-73
2021/08/26 07:43:07;;;;;;;;;14.80;14.80;;;;;29.82;42.09;100752.56;6305985;22;8846;-73
2021/08/26 07:46:04;;;;;;;;;12.80;12.80;;;;;29.90;40.94;100765.28;6307153;22;8807;-74
2021/08/26 07:48:32;;;;;;;;;13.40;13.40;;;;;30.08;40.96;100753.25;6287866;22;8778;-73
2021/08/26 07:51:29;;;;;;;;;13.00;13.00;;;;;30.11;41.23;100758.03;6276901;22;8797;-74
2021/08/26 07:54:26;;;;;;;;;13.20;13.20;;;;;30.24;39.90;100752.28;6306261;22;8773;-74
2021/08/26 07:57:22;;;;;;;;;13.00;13.00;;;;;30.32;40.57;100750.75;6306068;22;8785;-74
2021/08/26 08:00:17;;;;;;;;;14.60;14.60;;;;;30.34;40.56;100745.34;6306252;22;8768;-73
2021/08/26 08:03:13;;;;;;;;;14.80;14.80;;;;;30.62;41.97;100735.69;6306219;22;8785;-74
2021/08/26 08:06:09;;;;;;;;;14.60;14.60;;;;;30.85;42.37;100748.66;6299041;22;8791;-74
2021/08/26 08:08:37;;;;;;;;;15.00;15.00;;;;;30.64;41.65;100749.47;6316343;22;8804;-73
2021/08/26 08:11:33;;;;;;;;;15.20;15.20;;;;;30.90;40.72;100741.53;6306118;22;8769;-73
2021/08/26 08:14:29;;;;;;;;;13.40;13.40;;;;;30.96;40.70;100746.16;6306084;22;8807;-73
2021/08/26 08:17:24;;;;;;;;;17.00;16.00;;;;;31.17;39.82;100744.47;6285540;22;9008;-74
2021/08/26 08:20:20;;;;;;;;;18.40;17.20;;;;;31.31;40.11;100745.97;6305243;22;9463;-75
2021/08/26 08:22:48;;;;;;;;;19.60;18.20;;;;;31.31;40.06;100745.97;6316448;22;8773;-74
2021/08/26 08:25:44;;;;;;;;;15.00;15.00;;;;;31.58;40.25;100742.34;6307032;22;8893;-73
2021/08/26 08:28:40;;;;;;;;;13.40;13.40;;;;;31.85;38.96;100735.06;6305692;22;8797;-74
2021/08/26 08:31:35;;;;;;;;;15.00;13.60;;;;;31.59;38.53;100726.75;6305882;22;9037;-75
2021/08/26 08:34:31;;;;;;;;;16.20;15.80;;;;;31.52;38.75;100730.75;6304684;22;8777;-74
2021/08/26 08:37:26;;;;;;;;;20.00;17.40;;;;;31.62;38.96;100727.91;6304301;22;8801;-74
2021/08/26 08:40:22;;;;;;;;;17.80;17.80;;;;;31.50;38.37;100736.13;6305669;22;8957;-73
2021/08/26 08:42:50;;;;;;;;;17.00;16.20;;;;;31.73;38.39;100731.06;6316088;22;8788;-74
2021/08/26 08:45:22;;;;;;;;;17.80;17.80;;;;;31.70;37.79;100727.09;6307231;22;8799;-73
2021/08/26 08:48:19;;;;;;;;;18.20;18.20;;;;;32.04;37.65;100728.84;6285117;22;8785;-74
2021/08/26 08:51:15;;;;;;;;;13.40;13.40;;;;;32.44;36.99;100733.56;6305459;22;9183;-74
2021/08/26 08:53:52;;;;;;;;;17.00;17.00;;;;;32.16;37.17;100721.34;6291463;22;8796;-73
2021/08/26 08:56:50;;;;;;;;;17.60;17.60;;;;;32.28;37.52;100726.13;6284839;22;8824;-73
2021/08/26 08:59:46;;;;;;;;;16.40;16.40;;;;;32.13;37.29;100722.34;6305752;22;8781;-73
2021/08/26 09:02:41;;;;;;;;;16.20;16.20;;;;;32.50;35.84;100723.03;6305218;22;8891;-72
2021/08/26 09:05:23;;;;;;;;;18.20;17.60;;;;;32.84;35.52;100718.13;6306756;22;8797;-73
2021/08/26 09:08:09;;;;;;;;;12.80;12.80;;;;;32.84;35.77;100721.00;6316101;22;8777;-74
2021/08/26 09:11:10;;;;;;;;;17.60;17.60;;;;;33.02;35.50;100711.53;6284831;22;8801;-75
2021/08/26 09:14:13;;;;;;;;;17.60;17.60;;;;;33.07;36.31;100711.66;6305003;22;8817;-73
2021/08/26 09:16:51;;;;;;;;;16.40;16.40;;;;;33.15;34.95;100706.38;6315816;22;8796;-74
2021/08/26 09:19:46;;;;;;;;;17.80;17.80;;;;;32.92;35.95;100710.81;6306713;22;8797;-73
2021/08/26 09:22:43;;;;;;;;;17.60;17.00;;;;;32.78;34.44;100712.25;6305560;22;8789;-73
2021/08/26 09:25:40;;;;;;;;;17.20;17.20;;;;;32.90;34.27;100699.03;6306097;22;8828;-73
2021/08/26 09:28:35;;;;;;;;;18.00;17.40;;;;;33.12;34.98;100705.25;6305250;22;8820;-74
2021/08/26 09:31:32;;;;;;;;;16.00;16.00;;;;;33.36;34.41;100713.06;6304890;22;8793;-73
2021/08/26 09:34:19;;;;;;;;;17.20;17.20;;;;;33.23;34.41;100695.31;6305998;22;8824;-73
2021/08/26 09:37:16;;;;;;;;;19.00;19.00;;;;;33.63;34.35;100689.13;6305006;22;8796;-73
2021/08/26 09:40:14;;;;;;;;;17.40;17.40;;;;;33.43;34.23;100693.47;6274144;22;8806;-73
2021/08/26 09:43:09;;;;;;;;;19.80;19.80;;;;;33.64;34.10;100697.25;6299150;22;8804;-73
2021/08/26 09:45:39;;;;;;;;;27.00;25.40;;;;;33.83;33.84;100692.16;6313437;22;8776;-73
2021/08/26 09:48:35;;;;;;;;;19.80;19.80;;;;;33.70;33.05;100685.91;6284920;22;8851;-73
2021/08/26 09:51:17;;;;;;;;;18.80;18.80;;;;;33.55;33.44;100685.88;6306999;22;8854;-74
2021/08/26 09:54:27;;;;;;;;;20.40;20.40;;;;;33.49;33.36;100684.94;6285847;22;8793;-74
2021/08/26 09:57:30;;;;;;;;;20.60;20.60;;;;;33.54;33.43;100678.56;6305073;22;8830;-74
2021/08/26 10:00:28;;;;;;;;;21.40;21.40;;;;;33.59;33.23;100674.22;6304281;22;8905;-75
2021/08/26 10:03:31;;;;;;;;;19.60;19.60;;;;;33.56;33.20;100672.31;6307427;22;8785;-72
2021/08/26 10:06:00;;;;;;;;;22.60;21.40;;;;;33.49;33.28;100684.94;6306102;22;8785;-72
2021/08/26 10:08:56;;;;;;;;;19.20;19.20;;;;;33.51;33.12;100678.72;6304676;22;8792;-72
2021/08/26 10:11:53;;;;;;;;;18.20;17.40;;;;;33.77;34.07;100679.78;6305065;22;8993;-74
2021/08/26 10:14:51;;;;;;;;;20.00;20.00;;;;;33.45;34.67;100675.78;6281224;22;8900;-72
2021/08/26 10:17:47;;;;;;;;;16.40;15.60;;;;;33.74;33.38;100670.09;6293272;22;8800;-73
2021/08/26 10:20:42;;;;;;;;;15.20;15.20;;;;;33.99;33.54;100677.34;6305747;22;8809;-73
2021/08/26 10:23:44;;;;;;;;;17.80;16.80;;;;;34.10;32.78;100671.00;6304884;22;8804;-73
2021/08/26 10:26:45;;;;;;;;;19.20;19.20;;;;;33.94;34.66;100668.63;6307395;22;8869;-73
2021/08/26 10:29:43;;;;;;;;;17.00;17.00;;;;;34.12;33.02;100656.16;6306882;22;8819;-73
2021/08/26 10:32:40;;;;;;;;;19.00;19.00;;;;;33.99;33.96;100665.09;6309058;22;8787;-72
2021/08/26 10:35:54;;;;;;;;;17.80;17.60;;;;;33.98;33.26;100663.50;6306823;22;8807;-72
2021/08/26 10:38:50;;;;;;;;;19.00;18.80;;;;;34.39;33.93;100661.59;6306194;22;9466;-72
2021/08/26 10:42:20;;;;;;;;;23.80;23.80;;;;;34.24;33.12;100652.19;6304626;22;8817;-77
2021/08/26 10:45:48;;;;;;;;;18.80;18.80;;;;;34.19;33.17;100659.41;6255496;23;8797;-79
2021/08/26 10:48:38;;;;;;;;;16.40;16.40;;;;;34.18;33.30;100643.50;6256082;23;8899;-79
2021/08/26 10:51:45;;;;;;;;;17.20;17.00;;;;;34.58;33.72;100639.19;6253117;23;8796;-78
2021/08/26 10:54:55;;;;;;;;;16.20;16.20;;;;;34.40;33.55;100640.22;6247335;22;8784;-78
2021/08/26 10:57:51;;;;;;;;;18.60;17.60;;;;;34.89;33.31;100634.91;6264396;22;8788;-77
2021/08/26 11:00:53;;;;;;;;;17.40;17.40;;;;;35.27;32.91;100637.53;6249593;23;8804;-80
2021/08/26 11:03:50;;;;;;;;;15.80;15.80;;;;;35.25;32.33;100627.84;6246915;23;8823;-79
2021/08/26 11:06:47;;;;;;;;;14.80;14.80;;;;;35.22;32.36;100631.75;6264153;22;8812;-80
2021/08/26 11:09:42;;;;;;;;;17.00;17.00;;;;;35.01;32.95;100630.94;6247605;22;8811;-78
2021/08/26 11:12:23;;;;;;;;;18.00;18.00;;;;;35.16;32.78;100630.88;6254737;22;9494;-77
2021/08/26 11:15:26;;;;;;;;;18.60;17.80;;;;;35.37;32.33;100618.84;6248046;22;8794;-80
2021/08/26 11:18:30;;;;;;;;;22.60;22.60;;;;;34.94;33.16;100617.78;6269215;22;8812;-80
2021/08/26 11:22:01;;;;;;;;;25.40;22.80;;;;;34.74;32.75;100621.44;6248817;23;9524;-79
2021/08/26 11:24:30;;;;;;;;;18.20;18.00;;;;;34.51;33.07;100620.31;6248274;22;8855;-81
2021/08/26 11:27:21;;;;;;;;;16.00;16.00;;;;;34.43;33.67;100619.16;6248332;23;8812;-80
2021/08/26 11:29:55;;;;;;;;;18.80;18.80;;;;;34.39;33.54;100615.66;6249990;22;8792;-76
2021/08/26 11:32:54;;;;;;;;;19.00;19.00;;;;;34.62;34.10;100608.19;6249833;22;8909;-79
2021/08/26 11:35:49;;;;;;;;;14.40;14.40;;;;;34.56;34.29;100601.56;6232807;23;8785;-80
2021/08/26 11:38:47;;;;;;;;;16.40;16.40;;;;;34.77;33.92;100611.00;6247635;22;8922;-79
2021/08/26 11:41:32;;;;;;;;;18.80;18.80;;;;;34.67;33.61;100600.97;6251311;22;8797;-79
2021/08/26 11:44:28;;;;;;;;;13.00;13.00;;;;;34.24;35.49;100603.41;6247054;23;8796;-79
2021/08/26 11:47:31;;;;;;;;;17.60;17.60;;;;;34.32;33.72;100589.44;6254848;23;8797;-78
2021/08/26 11:50:38;;;;;;;;;18.00;18.00;;;;;34.67;33.94;100584.50;6257695;23;8785;-79
2021/08/26 11:53:34;;;;;;;;;16.00;16.00;;;;;34.96;33.27;100589.34;6246377;23;9464;-77
2021/08/26 11:56:04;;;;;;;;;18.20;18.20;;;;;34.87;33.54;100586.59;6256131;23;8780;-76
2021/08/26 11:58:34;;;;;;;;;18.20;18.20;;;;;34.80;33.51;100582.06;6251834;23;8781;-78
2021/08/26 12:01:02;;;;;;;;;18.00;18.00;;;;;34.90;34.50;100582.75;6279984;22;8784;-78
2021/08/26 12:03:32;;;;;;;;;17.00;17.00;;;;;34.93;33.70;100575.22;6255504;23;8871;-76
2021/08/26 12:06:27;;;;;;;;;18.60;18.60;;;;;34.68;34.30;100576.69;6263224;22;8804;-77
2021/08/26 12:09:26;;;;;;;;;44.20;31.20;;;;;34.28;34.90;100566.69;6245217;23;8815;-76
2021/08/26 12:11:54;;;;;;;;;21.40;21.40;;;;;34.00;34.99;100561.31;6253648;23;8793;-77
2021/08/26 12:14:50;;;;;;;;;20.80;20.80;;;;;34.01;36.76;100553.50;6245215;23;9526;-78
2021/08/26 12:17:20;;;;;;;;;19.60;19.60;;;;;34.05;36.25;100553.28;6255636;23;8760;-78
2021/08/26 12:19:52;;;;;;;;;21.00;20.20;;;;;33.80;36.39;100549.72;6255437;22;8784;-78
2021/08/26 12:22:23;;;;;;;;;27.20;25.40;;;;;33.75;36.56;100550.44;6255978;22;8780;-78
2021/08/26 12:25:29;;;;;;;;;19.60;19.60;;;;;33.53;36.82;100547.19;6226356;23;8784;-77
2021/08/26 12:28:31;;;;;;;;;17.20;17.20;;;;;33.77;36.52;100538.47;6245127;23;8796;-78
2021/08/26 12:31:29;;;;;;;;;17.20;17.20;;;;;34.03;36.79;100530.81;6246511;23;8804;-79
2021/08/26 12:34:27;;;;;;;;;18.00;18.00;;;;;34.50;36.30;100531.78;6254513;23;8813;-79
2021/08/26 12:37:23;;;;;;;;;19.80;19.80;;;;;34.51;36.59;100527.66;6248535;23;8882;-79
2021/08/26 12:40:19;;;;;;;;;8.40;8.40;;;;;34.49;36.36;100533.09;6247825;22;8808;-78
2021/08/26 12:42:58;;;;;;;;;19.20;19.20;;;;;34.42;35.68;100527.75;6263183;22;8810;-77
2021/08/26 12:46:08;;;;;;;;;18.80;18.80;;;;;34.44;36.36;100522.34;6276658;22;8791;-77
2021/08/26 12:49:10;;;;;;;;;25.60;24.60;;;;;34.71;35.79;100518.22;6276849;22;8810;-78
2021/08/26 12:52:05;;;;;;;;;18.60;18.60;;;;;34.74;35.01;100506.53;6274380;22;8783;-79
2021/08/26 12:55:01;;;;;;;;;10.80;10.80;;;;;34.87;34.71;100500.41;6276388;22;8790;-80
2021/08/26 12:57:33;;;;;;;;;19.40;19.20;;;;;34.81;35.03;100500.38;6287616;22;8783;-82
2021/08/26 13:00:40;;;;;;;;;23.80;23.80;;;;;34.99;34.54;100490.66;6277196;22;8802;-81
2021/08/26 13:03:47;;;;;;;;;20.60;20.60;;;;;34.83;34.25;100492.03;6276332;22;8779;-78
2021/08/26 13:06:51;;;;;;;;;23.60;22.00;;;;;34.90;34.80;100490.00;6277222;22;8825;-81
2021/08/26 13:09:59;;;;;;;;;19.20;19.20;;;;;34.42;35.62;100493.31;6274919;22;8932;-78
2021/08/26 13:12:46;;;;;;;;;23.00;23.00;;;;;34.58;36.71;100486.22;6275535;22;8900;-78
2021/08/26 13:15:44;;;;;;;;;16.00;16.00;;;;;34.49;38.31;100485.06;6276853;22;8802;-79
2021/08/26 13:18:42;;;;;;;;;20.20;20.00;;;;;34.32;37.63;100486.91;6280718;22;8798;-77
2021/08/26 13:21:40;;;;;;;;;24.80;24.60;;;;;33.66;37.34;100482.53;6282826;22;8799;-84